Terminal Aerodrome Forecast
Issued by NWS Charleston, WV

Current Version | Previous Version | Text Only | Print | Product List | Glossary On
Versions: 1 2 3 4 5 6 7 8 9 10 11 12 13 14 15 16 17 18 19 20 21 22
000
FTUS41 KRLX 311743
TAFPKB
TAF
KPKB 311743Z 3118/0118 26008KT P6SM SCT060
     FM010000 26004KT P6SM SCT250
     FM010600 24002KT P6SM SCT060
     FM011400 28006KT P6SM SCT050=

USA.gov is the U.S. government's official web portal to all federal, state and local government web resources and services.